Terminal Aerodrome Forecast
Issued by NWS

Home | Current Version | Previous Version | Text Only | Print | Product List | Glossary On
Versions: 1 2 3 4 5 6 7 8 9 10 11 12 13 14 15 16 17 18 19
000
FTUS43 KSGF 110000 AAA
TAFBBG
TAF AMD
KBBG 110043Z 1101/1124 15004KT P6SM SCT030 BKN060
     FM110600 15005KT P6SM OVC050
     FM111400 15006KT P6SM BKN250
     FM111600 18010KT P6SM SCT040 SCT250=

USA.gov is the U.S. government's official web portal to all federal, state and local government web resources and services.